Time;durP1;ratioP1;P1;durP2;ratioP2;P2;SDS_P1;SDS_P2;PMS_P1;PMS_P2;Temp;Humidity;BMP_temperature;BMP_pressure;BME280_temperature;BME280_humidity;BME280_pressure;Samples;Min_cycle;Max_cycle;Signal;HPM_P1;HPM_P2
2022/07/28 00:01:05;;;;;;;0.30;0.30;;;;;;;;;;5048349;28;20219;-66
2022/07/28 00:03:32;;;;;;;0.98;0.63;;;;;;;;;;5048618;28;20206;-66
2022/07/28 00:06:01;;;;;;;1.30;0.35;;;;;;;;;;5047521;28;20215;-67
2022/07/28 00:08:28;;;;;;;0.47;0.47;;;;;;;;;;5047718;28;20269;-67
2022/07/28 00:10:55;;;;;;;0.30;0.30;;;;;;;;;;5048061;28;20250;-67
2022/07/28 00:13:22;;;;;;;4.10;0.43;;;;;;;;;;5047892;28;20218;-66
2022/07/28 00:15:49;;;;;;;0.93;0.43;;;;;;;;;;5048241;28;20202;-66
2022/07/28 00:18:16;;;;;;;0.63;0.38;;;;;;;;;;5047821;28;20675;-67
2022/07/28 00:20:43;;;;;;;0.75;0.50;;;;;;;;;;5047726;28;20235;-66
2022/07/28 00:23:11;;;;;;;1.08;0.65;;;;;;;;;;5047454;28;20796;-67
2022/07/28 00:25:38;;;;;;;1.45;0.50;;;;;;;;;;5048397;28;20619;-66
2022/07/28 00:28:06;;;;;;;1.75;0.52;;;;;;;;;;5047937;28;20203;-67
2022/07/28 00:30:33;;;;;;;0.40;0.40;;;;;;;;;;5048335;28;20228;-66
2022/07/28 00:33:00;;;;;;;2.20;0.50;;;;;;;;;;5046813;28;20914;-66
2022/07/28 00:35:27;;;;;;;2.72;0.40;;;;;;;;;;5044622;28;20557;-67
2022/07/28 00:37:54;;;;;;;1.85;1.00;;;;;;;;;;5047988;28;20204;-66
2022/07/28 00:41:09;;;;;;;1.73;0.40;;;;;;;;;;5048090;28;20215;-66
2022/07/28 00:43:09;;;;;;;0.90;0.50;;;;;;;;;;5045410;28;20764;-66
2022/07/28 00:45:36;;;;;;;1.02;0.57;;;;;;;;;;5047790;28;20582;-66
2022/07/28 00:48:04;;;;;;;0.88;0.70;;;;;;;;;;5047273;28;20195;-66
2022/07/28 00:50:31;;;;;;;2.10;0.70;;;;;;;;;;5047694;28;20239;-66
2022/07/28 00:52:58;;;;;;;1.30;0.45;;;;;;;;;;5047672;28;20243;-67
2022/07/28 00:55:26;;;;;;;2.25;0.40;;;;;;;;;;5047521;28;20223;-66
2022/07/28 00:57:54;;;;;;;1.45;0.60;;;;;;;;;;5047815;28;20204;-66
2022/07/28 01:00:21;;;;;;;2.08;0.52;;;;;;;;;;5047428;28;20204;-66
2022/07/28 01:02:48;;;;;;;0.55;0.50;;;;;;;;;;5046954;28;20204;-66
2022/07/28 01:05:15;;;;;;;1.90;0.50;;;;;;;;;;5048660;28;20665;-65
2022/07/28 01:07:44;;;;;;;1.40;0.47;;;;;;;;;;5047977;28;20203;-66
2022/07/28 01:10:14;;;;;;;1.52;0.50;;;;;;;;;;5048783;28;20212;-66
2022/07/28 01:12:48;;;;;;;0.40;0.40;;;;;;;;;;5048869;28;20618;-66
2022/07/28 01:15:20;;;;;;;1.27;0.57;;;;;;;;;;5047644;28;20212;-66
2022/07/28 01:17:52;;;;;;;1.75;0.40;;;;;;;;;;5048089;28;20673;-66
2022/07/28 01:20:23;;;;;;;1.77;0.50;;;;;;;;;;5051646;28;20231;-67
2022/07/28 01:22:57;;;;;;;0.45;0.45;;;;;;;;;;5046988;28;20630;-66
2022/07/28 01:25:30;;;;;;;1.25;0.50;;;;;;;;;;5052710;28;20764;-67
2022/07/28 01:28:16;;;;;;;0.47;0.47;;;;;;;;;;5048800;28;20204;-66
2022/07/28 01:30:46;;;;;;;1.52;0.60;;;;;;;;;;5052101;28;20322;-66
2022/07/28 01:33:16;;;;;;;1.70;0.40;;;;;;;;;;5051779;28;20666;-66
2022/07/28 01:35:46;;;;;;;3.13;0.52;;;;;;;;;;5051528;28;20204;-66
2022/07/28 01:38:15;;;;;;;1.80;0.50;;;;;;;;;;5051603;28;20208;-66
2022/07/28 01:40:45;;;;;;;2.08;0.40;;;;;;;;;;5052230;28;20196;-66
2022/07/28 01:43:13;;;;;;;4.43;0.50;;;;;;;;;;5051798;28;20230;-66
2022/07/28 01:45:41;;;;;;;1.05;0.60;;;;;;;;;;5051881;28;20258;-67
2022/07/28 01:48:11;;;;;;;0.47;0.40;;;;;;;;;;5051155;28;20207;-66
2022/07/28 01:50:39;;;;;;;0.75;0.60;;;;;;;;;;5046090;28;20633;-66
2022/07/28 01:53:09;;;;;;;1.92;0.50;;;;;;;;;;5051091;28;20207;-65
2022/07/28 01:55:37;;;;;;;0.73;0.50;;;;;;;;;;5050898;28;20243;-65
2022/07/28 01:58:05;;;;;;;2.17;0.60;;;;;;;;;;5051813;28;20210;-65
2022/07/28 02:00:33;;;;;;;1.98;0.50;;;;;;;;;;5041153;28;20199;-64
2022/07/28 02:03:02;;;;;;;0.40;0.40;;;;;;;;;;5046072;28;20219;-64
2022/07/28 02:05:31;;;;;;;1.45;0.50;;;;;;;;;;5050805;28;20203;-64
2022/07/28 02:07:59;;;;;;;2.00;0.55;;;;;;;;;;5051235;28;20238;-65
2022/07/28 02:10:27;;;;;;;2.25;0.50;;;;;;;;;;5051046;28;20274;-64
2022/07/28 02:12:55;;;;;;;0.90;0.57;;;;;;;;;;5051138;28;20203;-65
2022/07/28 02:15:23;;;;;;;2.83;0.57;;;;;;;;;;5050182;28;20286;-65
2022/07/28 02:17:52;;;;;;;0.20;0.20;;;;;;;;;;5051233;28;20242;-65
2022/07/28 02:20:20;;;;;;;0.43;0.43;;;;;;;;;;5050837;28;20658;-64
2022/07/28 02:22:49;;;;;;;0.60;0.60;;;;;;;;;;5050792;28;20258;-64
2022/07/28 02:25:16;;;;;;;0.57;0.57;;;;;;;;;;5050710;28;20222;-63
2022/07/28 02:27:47;;;;;;;0.68;0.45;;;;;;;;;;5050757;28;20261;-63
2022/07/28 02:30:15;;;;;;;0.50;0.50;;;;;;;;;;5050854;28;20585;-63
2022/07/28 02:32:48;;;;;;;2.33;0.60;;;;;;;;;;5050421;28;20592;-63
2022/07/28 02:35:17;;;;;;;1.67;0.50;;;;;;;;;;5050234;28;20678;-63
2022/07/28 02:37:47;;;;;;;1.35;0.52;;;;;;;;;;5050107;28;20208;-63
2022/07/28 02:40:17;;;;;;;0.60;0.40;;;;;;;;;;5050387;28;20226;-63
2022/07/28 02:42:46;;;;;;;1.70;0.50;;;;;;;;;;5049588;28;20358;-63
2022/07/28 02:45:14;;;;;;;1.48;0.40;;;;;;;;;;5050541;28;20207;-63
2022/07/28 02:47:45;;;;;;;0.63;0.50;;;;;;;;;;5048850;28;20489;-64
2022/07/28 02:50:13;;;;;;;0.40;0.40;;;;;;;;;;5048801;28;20231;-62
2022/07/28 02:52:42;;;;;;;0.90;0.60;;;;;;;;;;5048657;28;20234;-64
2022/07/28 02:55:10;;;;;;;0.85;0.43;;;;;;;;;;5049382;28;20231;-63
2022/07/28 02:57:38;;;;;;;0.85;0.43;;;;;;;;;;5049332;28;20208;-63
2022/07/28 03:00:06;;;;;;;0.50;0.50;;;;;;;;;;5048820;28;20257;-62
2022/07/28 03:02:35;;;;;;;0.45;0.43;;;;;;;;;;5049446;28;20208;-63
2022/07/28 03:05:03;;;;;;;0.50;0.50;;;;;;;;;;5047984;28;20210;-63
2022/07/28 03:07:31;;;;;;;0.65;0.40;;;;;;;;;;5048307;28;20737;-63
2022/07/28 03:09:59;;;;;;;0.40;0.40;;;;;;;;;;5048808;28;20238;-63
2022/07/28 03:12:26;;;;;;;0.47;0.47;;;;;;;;;;5048470;28;20227;-63
2022/07/28 03:14:55;;;;;;;1.63;0.52;;;;;;;;;;5049042;28;20204;-63
2022/07/28 03:17:22;;;;;;;3.03;0.50;;;;;;;;;;5048304;28;20211;-62
2022/07/28 03:19:49;;;;;;;2.38;0.40;;;;;;;;;;5047994;28;20240;-63
2022/07/28 03:22:16;;;;;;;0.85;0.43;;;;;;;;;;5048053;28;20256;-63
2022/07/28 03:24:44;;;;;;;1.08;0.40;;;;;;;;;;5048317;28;20208;-63
2022/07/28 03:27:13;;;;;;;1.58;0.40;;;;;;;;;;5049452;28;20239;-63
2022/07/28 03:29:42;;;;;;;2.63;0.40;;;;;;;;;;5049439;28;20230;-63
2022/07/28 03:32:11;;;;;;;0.50;0.50;;;;;;;;;;5050253;28;20228;-63
2022/07/28 03:34:38;;;;;;;1.02;0.40;;;;;;;;;;5048797;28;20211;-63
2022/07/28 03:37:06;;;;;;;0.43;0.43;;;;;;;;;;5048353;28;20208;-63
2022/07/28 03:39:36;;;;;;;1.60;0.52;;;;;;;;;;5048583;28;20200;-63
2022/07/28 03:42:03;;;;;;;2.33;0.60;;;;;;;;;;5046932;28;20202;-63
2022/07/28 03:44:30;;;;;;;1.17;0.65;;;;;;;;;;5048068;28;20219;-63
2022/07/28 03:46:58;;;;;;;0.57;0.38;;;;;;;;;;5048001;28;20203;-63
2022/07/28 03:49:26;;;;;;;1.45;0.40;;;;;;;;;;5047777;28;20206;-63
2022/07/28 03:51:53;;;;;;;3.50;0.52;;;;;;;;;;5047173;28;20231;-63
2022/07/28 03:54:20;;;;;;;2.40;0.63;;;;;;;;;;5047869;28;20208;-63
2022/07/28 03:56:47;;;;;;;0.65;0.60;;;;;;;;;;5048664;28;20661;-64
2022/07/28 03:59:14;;;;;;;0.70;0.70;;;;;;;;;;5047674;28;20199;-63
2022/07/28 04:01:41;;;;;;;3.58;0.80;;;;;;;;;;5048285;28;20635;-66
2022/07/28 04:04:08;;;;;;;0.57;0.43;;;;;;;;;;5044718;28;20199;-64
2022/07/28 04:06:37;;;;;;;0.65;0.52;;;;;;;;;;5047587;28;20257;-63
2022/07/28 04:09:04;;;;;;;1.58;0.50;;;;;;;;;;5047525;28;20203;-63
2022/07/28 04:11:31;;;;;;;1.52;0.50;;;;;;;;;;5047045;28;20242;-63
2022/07/28 04:13:58;;;;;;;0.40;0.40;;;;;;;;;;5048106;28;20304;-64
2022/07/28 04:16:25;;;;;;;0.50;0.50;;;;;;;;;;5048007;28;20678;-63
2022/07/28 04:18:52;;;;;;;2.25;0.70;;;;;;;;;;5047699;28;20291;-63
2022/07/28 04:21:21;;;;;;;0.60;0.60;;;;;;;;;;5048702;28;20203;-64
2022/07/28 04:23:50;;;;;;;3.08;0.50;;;;;;;;;;5048229;28;20200;-63
2022/07/28 04:26:17;;;;;;;0.50;0.50;;;;;;;;;;5048066;28;20207;-64
2022/07/28 04:28:44;;;;;;;2.17;0.45;;;;;;;;;;5049016;28;20586;-63
2022/07/28 04:31:11;;;;;;;1.75;0.50;;;;;;;;;;5049399;28;20845;-63
2022/07/28 04:33:38;;;;;;;0.52;0.52;;;;;;;;;;5048731;28;20218;-63
2022/07/28 04:36:05;;;;;;;1.02;0.77;;;;;;;;;;5049071;28;20204;-63
2022/07/28 04:38:33;;;;;;;1.42;0.57;;;;;;;;;;5048235;28;20254;-64
2022/07/28 04:41:01;;;;;;;0.60;0.50;;;;;;;;;;5048987;28;20222;-63
2022/07/28 04:43:28;;;;;;;3.78;0.82;;;;;;;;;;5037194;28;20211;-63
2022/07/28 04:45:55;;;;;;;0.82;0.40;;;;;;;;;;5048813;28;20203;-63
2022/07/28 04:48:23;;;;;;;0.75;0.45;;;;;;;;;;5048535;28;20199;-63
2022/07/28 04:50:51;;;;;;;1.88;0.50;;;;;;;;;;5048337;28;20215;-63
2022/07/28 04:53:18;;;;;;;1.95;0.60;;;;;;;;;;5051160;28;20233;-63
2022/07/28 04:55:45;;;;;;;0.47;0.47;;;;;;;;;;5052051;28;20223;-63
2022/07/28 04:58:17;;;;;;;1.00;0.47;;;;;;;;;;5052525;28;20204;-63
2022/07/28 05:00:44;;;;;;;1.33;0.60;;;;;;;;;;5052431;28;20253;-63
2022/07/28 05:03:12;;;;;;;1.25;0.80;;;;;;;;;;5052185;28;20204;-64
2022/07/28 05:05:39;;;;;;;0.43;0.43;;;;;;;;;;5052357;28;20203;-63
2022/07/28 05:08:06;;;;;;;0.40;0.40;;;;;;;;;;5052098;28;20207;-63
2022/07/28 05:10:33;;;;;;;0.50;0.50;;;;;;;;;;5051820;28;20211;-64
2022/07/28 05:13:05;;;;;;;1.33;0.50;;;;;;;;;;5052129;28;20223;-64
2022/07/28 05:15:34;;;;;;;0.68;0.45;;;;;;;;;;5052811;28;20811;-66
2022/07/28 05:18:01;;;;;;;1.88;0.50;;;;;;;;;;5052471;28;20863;-65
2022/07/28 05:20:28;;;;;;;0.65;0.65;;;;;;;;;;5052334;28;20239;-63
2022/07/28 05:22:56;;;;;;;0.85;0.60;;;;;;;;;;5052052;28;20211;-66
2022/07/28 05:25:23;;;;;;;1.48;0.65;;;;;;;;;;5050437;28;20208;-64
2022/07/28 05:27:51;;;;;;;0.70;0.52;;;;;;;;;;5052225;28;20203;-63
2022/07/28 05:30:18;;;;;;;0.52;0.50;;;;;;;;;;5052512;28;20207;-63
2022/07/28 05:32:47;;;;;;;2.45;0.50;;;;;;;;;;5051534;28;20338;-62
2022/07/28 05:35:14;;;;;;;0.57;0.40;;;;;;;;;;5047266;28;20298;-64
2022/07/28 05:37:42;;;;;;;1.77;0.50;;;;;;;;;;5050386;28;20211;-62
2022/07/28 05:40:12;;;;;;;0.50;0.50;;;;;;;;;;5051598;28;20203;-63
2022/07/28 05:42:39;;;;;;;1.90;0.50;;;;;;;;;;5047604;28;20208;-63
2022/07/28 05:45:09;;;;;;;0.93;0.93;;;;;;;;;;5051711;28;20769;-63
2022/07/28 05:47:41;;;;;;;1.77;0.52;;;;;;;;;;5051535;28;20269;-63
2022/07/28 05:50:09;;;;;;;1.23;0.45;;;;;;;;;;5051479;28;20670;-62
2022/07/28 05:52:36;;;;;;;3.47;0.60;;;;;;;;;;5051682;28;20236;-63
2022/07/28 05:55:04;;;;;;;1.95;0.60;;;;;;;;;;5051956;28;20235;-62
2022/07/28 05:57:31;;;;;;;0.50;0.50;;;;;;;;;;5051607;28;20234;-63
2022/07/28 05:59:58;;;;;;;1.75;0.63;;;;;;;;;;5043291;28;20670;-66
2022/07/28 06:02:25;;;;;;;1.20;0.50;;;;;;;;;;5031629;28;20219;-64
2022/07/28 06:04:52;;;;;;;4.90;1.00;;;;;;;;;;5041355;28;20289;-64
2022/07/28 06:07:20;;;;;;;1.25;0.52;;;;;;;;;;5051472;28;20204;-63
2022/07/28 06:09:47;;;;;;;0.40;0.40;;;;;;;;;;5051480;28;20221;-64
2022/07/28 06:12:14;;;;;;;0.73;0.50;;;;;;;;;;5051364;28;20701;-64
2022/07/28 06:14:41;;;;;;;1.30;0.77;;;;;;;;;;5051314;28;20745;-64
2022/07/28 06:17:08;;;;;;;0.90;0.52;;;;;;;;;;5051239;28;20715;-64
2022/07/28 06:19:35;;;;;;;2.80;0.77;;;;;;;;;;5051078;28;20262;-63
2022/07/28 06:22:05;;;;;;;3.20;0.63;;;;;;;;;;5051017;28;20546;-63
2022/07/28 06:24:33;;;;;;;1.17;0.57;;;;;;;;;;5051077;28;20207;-63
2022/07/28 06:27:01;;;;;;;2.15;0.70;;;;;;;;;;5050979;28;20212;-62
2022/07/28 06:29:28;;;;;;;0.80;0.50;;;;;;;;;;5051222;28;20219;-63
2022/07/28 06:31:55;;;;;;;0.70;0.70;;;;;;;;;;5051123;28;20231;-63
2022/07/28 06:34:22;;;;;;;0.80;0.50;;;;;;;;;;5050792;28;20426;-64
2022/07/28 06:36:50;;;;;;;2.58;0.80;;;;;;;;;;5051047;28;20208;-63
2022/07/28 06:39:17;;;;;;;3.15;0.60;;;;;;;;;;5049526;28;20205;-63
2022/07/28 06:41:45;;;;;;;0.77;0.77;;;;;;;;;;5050952;28;20250;-63
2022/07/28 06:44:12;;;;;;;0.50;0.50;;;;;;;;;;5050920;28;20578;-63
2022/07/28 06:46:39;;;;;;;1.83;0.50;;;;;;;;;;5050874;28;20230;-63
2022/07/28 06:49:06;;;;;;;0.82;0.40;;;;;;;;;;5050126;28;20218;-63
2022/07/28 06:51:33;;;;;;;1.75;0.55;;;;;;;;;;5049987;28;20207;-63
2022/07/28 06:54:01;;;;;;;0.50;0.50;;;;;;;;;;5048967;28;20693;-63
2022/07/28 06:56:28;;;;;;;1.33;0.90;;;;;;;;;;5049972;28;20219;-64
2022/07/28 06:58:56;;;;;;;0.85;0.47;;;;;;;;;;5050085;28;20219;-63
2022/07/28 07:01:23;;;;;;;2.45;0.85;;;;;;;;;;5050611;28;20211;-64
2022/07/28 07:03:50;;;;;;;1.17;0.70;;;;;;;;;;5049956;28;20211;-66
2022/07/28 07:06:17;;;;;;;3.47;0.77;;;;;;;;;;5050197;28;20204;-73
2022/07/28 07:08:46;;;;;;;0.70;0.50;;;;;;;;;;5050638;28;20215;-65
2022/07/28 07:11:13;;;;;;;2.38;0.80;;;;;;;;;;5049849;28;20303;-65
2022/07/28 07:13:40;;;;;;;1.13;0.60;;;;;;;;;;5050286;28;20228;-65
2022/07/28 07:16:08;;;;;;;0.40;0.40;;;;;;;;;;5050170;28;20212;-65
2022/07/28 07:18:35;;;;;;;0.40;0.40;;;;;;;;;;5049561;28;20265;-66
2022/07/28 07:21:02;;;;;;;1.50;0.77;;;;;;;;;;5050118;28;20237;-65
2022/07/28 07:23:29;;;;;;;1.85;0.80;;;;;;;;;;5050217;28;20615;-66
2022/07/28 07:25:56;;;;;;;2.92;0.80;;;;;;;;;;5049390;28;20210;-65
2022/07/28 07:28:23;;;;;;;0.60;0.60;;;;;;;;;;5048994;28;20196;-68
2022/07/28 07:30:50;;;;;;;1.45;0.63;;;;;;;;;;5049344;28;20621;-65
2022/07/28 07:33:19;;;;;;;2.45;0.60;;;;;;;;;;5049321;28;20282;-65
2022/07/28 07:35:46;;;;;;;4.75;0.90;;;;;;;;;;5049394;28;20196;-67
2022/07/28 07:38:13;;;;;;;3.60;0.70;;;;;;;;;;5049659;28;20199;-66
2022/07/28 07:40:40;;;;;;;2.25;0.85;;;;;;;;;;5049229;28;20215;-67
2022/07/28 07:43:07;;;;;;;0.73;0.68;;;;;;;;;;5049018;28;20196;-66
2022/07/28 07:45:34;;;;;;;1.15;0.77;;;;;;;;;;5048906;28;20535;-66
2022/07/28 07:48:01;;;;;;;0.70;0.70;;;;;;;;;;5048928;28;20639;-65
2022/07/28 07:50:30;;;;;;;1.38;0.60;;;;;;;;;;5048116;28;20214;-66
2022/07/28 07:52:57;;;;;;;1.88;0.63;;;;;;;;;;5048817;28;20235;-66
2022/07/28 07:55:24;;;;;;;2.00;0.90;;;;;;;;;;5047943;28;20215;-66
2022/07/28 07:57:51;;;;;;;0.73;0.73;;;;;;;;;;5048714;28;20219;-71
2022/07/28 08:00:18;;;;;;;1.40;1.10;;;;;;;;;;5040785;28;20204;-65
2022/07/28 08:02:45;;;;;;;2.60;0.80;;;;;;;;;;5047994;28;20208;-64
2022/07/28 08:05:12;;;;;;;2.20;0.82;;;;;;;;;;5044279;28;20211;-64
2022/07/28 08:07:41;;;;;;;0.98;0.70;;;;;;;;;;5033596;28;20206;-65
2022/07/28 08:10:08;;;;;;;2.35;0.68;;;;;;;;;;5045081;28;20269;-65
2022/07/28 08:12:38;;;;;;;2.75;0.82;;;;;;;;;;5029127;28;20243;-65
2022/07/28 08:15:06;;;;;;;2.03;0.80;;;;;;;;;;5044030;28;20219;-64
2022/07/28 08:17:33;;;;;;;2.38;0.57;;;;;;;;;;5039373;28;20208;-64
2022/07/28 08:20:01;;;;;;;0.80;0.80;;;;;;;;;;5042132;28;20235;-64
2022/07/28 08:22:28;;;;;;;2.85;0.70;;;;;;;;;;5047280;28;20673;-64
2022/07/28 08:24:56;;;;;;;4.25;0.88;;;;;;;;;;5048297;28;20227;-64
2022/07/28 08:27:23;;;;;;;0.95;0.80;;;;;;;;;;5047745;28;20230;-63
2022/07/28 08:29:50;;;;;;;1.80;0.85;;;;;;;;;;5048398;28;20207;-64
2022/07/28 08:32:17;;;;;;;2.08;1.10;;;;;;;;;;5047298;28;20214;-63
2022/07/28 08:34:44;;;;;;;1.15;0.77;;;;;;;;;;5047720;28;20199;-63
2022/07/28 08:37:11;;;;;;;2.88;1.05;;;;;;;;;;5047794;28;20222;-64
2022/07/28 08:39:38;;;;;;;1.98;0.93;;;;;;;;;;5048052;28;20199;-64
2022/07/28 08:42:07;;;;;;;1.80;1.10;;;;;;;;;;5048016;28;20215;-64
2022/07/28 08:44:39;;;;;;;0.80;0.80;;;;;;;;;;5046213;28;20244;-64
2022/07/28 08:47:09;;;;;;;1.27;1.00;;;;;;;;;;5038032;28;20295;-64
2022/07/28 08:49:37;;;;;;;3.25;0.80;;;;;;;;;;5031223;28;20204;-64
2022/07/28 08:52:04;;;;;;;1.73;1.00;;;;;;;;;;5047115;28;20199;-64
2022/07/28 08:54:32;;;;;;;1.70;1.23;;;;;;;;;;5047849;28;20909;-65
2022/07/28 08:56:59;;;;;;;2.85;1.20;;;;;;;;;;5047299;28;20257;-65
2022/07/28 08:59:28;;;;;;;4.13;1.10;;;;;;;;;;5047684;28;20215;-64
2022/07/28 09:01:56;;;;;;;1.02;1.00;;;;;;;;;;5047450;28;20230;-62
2022/07/28 09:04:23;;;;;;;1.60;0.95;;;;;;;;;;5048142;28;20688;-65
2022/07/28 09:06:50;;;;;;;1.13;0.90;;;;;;;;;;5047686;28;20207;-64
2022/07/28 09:09:20;;;;;;;3.08;0.90;;;;;;;;;;5047708;28;20210;-65
2022/07/28 09:11:47;;;;;;;0.90;0.90;;;;;;;;;;5045792;28;20269;-64
2022/07/28 09:14:14;;;;;;;0.88;0.88;;;;;;;;;;5047524;28;20223;-64
2022/07/28 09:16:43;;;;;;;2.65;1.25;;;;;;;;;;5047774;28;20211;-64
2022/07/28 09:19:10;;;;;;;1.17;0.90;;;;;;;;;;5047599;28;20266;-65
2022/07/28 09:21:37;;;;;;;0.80;0.80;;;;;;;;;;5048160;28;20269;-66
2022/07/28 09:24:05;;;;;;;2.28;0.90;;;;;;;;;;5047164;28;20775;-71
2022/07/28 09:29:46;;;;;;;1.42;0.88;;;;;;;;;;4983107;28;20202;-62
2022/07/28 09:32:15;;;;;;;2.80;0.80;;;;;;;;;;5030245;28;20246;-65
2022/07/28 09:34:42;;;;;;;1.55;0.85;;;;;;;;;;5047791;28;20713;-64
2022/07/28 09:37:17;;;;;;;1.73;0.98;;;;;;;;;;5048177;28;20219;-64
2022/07/28 09:39:45;;;;;;;4.75;1.00;;;;;;;;;;5049156;28;20602;-64
2022/07/28 09:42:12;;;;;;;1.25;1.13;;;;;;;;;;5051285;28;20254;-64
2022/07/28 09:44:39;;;;;;;5.53;1.13;;;;;;;;;;5051470;28;20661;-64
2022/07/28 09:47:21;;;;;;;0.75;0.75;;;;;;;;;;5051464;28;20212;-64
2022/07/28 09:49:48;;;;;;;1.95;1.00;;;;;;;;;;5051575;28;20207;-64
2022/07/28 09:52:27;;;;;;;0.75;0.75;;;;;;;;;;5051403;28;20204;-64
2022/07/28 09:55:00;;;;;;;0.82;0.82;;;;;;;;;;5051534;28;20239;-64
2022/07/28 09:57:27;;;;;;;1.13;1.02;;;;;;;;;;5047596;28;20298;-65
2022/07/28 09:59:54;;;;;;;1.40;1.00;;;;;;;;;;5051148;28;20223;-64
2022/07/28 10:02:25;;;;;;;2.25;1.13;;;;;;;;;;5051658;28;20778;-64
2022/07/28 10:04:52;;;;;;;1.95;1.10;;;;;;;;;;5051433;28;20199;-65
2022/07/28 10:07:20;;;;;;;1.38;1.10;;;;;;;;;;5051276;28;20218;-64
2022/07/28 10:09:56;;;;;;;2.25;1.02;;;;;;;;;;5051519;28;20215;-64
2022/07/28 10:12:24;;;;;;;1.17;0.93;;;;;;;;;;5031173;28;20212;-64
2022/07/28 10:14:52;;;;;;;1.33;1.20;;;;;;;;;;5031147;28;20240;-64
2022/07/28 10:17:22;;;;;;;1.17;0.93;;;;;;;;;;5038005;28;20196;-64
2022/07/28 10:19:53;;;;;;;1.30;0.70;;;;;;;;;;5050842;28;20239;-65
2022/07/28 10:22:20;;;;;;;1.15;1.00;;;;;;;;;;5051172;28;20238;-65
2022/07/28 10:24:51;;;;;;;0.80;0.80;;;;;;;;;;5050900;28;20215;-65
2022/07/28 10:27:18;;;;;;;1.02;1.00;;;;;;;;;;5050713;28;20298;-66
2022/07/28 10:29:46;;;;;;;0.90;0.90;;;;;;;;;;5050797;28;20214;-64
2022/07/28 10:32:13;;;;;;;1.35;1.25;;;;;;;;;;5050660;28;20778;-65
2022/07/28 10:34:44;;;;;;;3.95;0.93;;;;;;;;;;5050714;28;20998;-64
2022/07/28 10:37:14;;;;;;;1.20;1.10;;;;;;;;;;5051067;28;20285;-64
2022/07/28 10:39:44;;;;;;;1.75;1.10;;;;;;;;;;5050966;28;20219;-65
2022/07/28 10:42:12;;;;;;;1.02;0.90;;;;;;;;;;5050587;28;20214;-64
2022/07/28 10:44:40;;;;;;;1.17;1.08;;;;;;;;;;5030853;28;20204;-65
2022/07/28 10:47:08;;;;;;;0.90;0.90;;;;;;;;;;5030884;28;20398;-65
2022/07/28 10:49:36;;;;;;;1.95;1.02;;;;;;;;;;5028412;28;20220;-65
2022/07/28 10:52:03;;;;;;;1.15;1.15;;;;;;;;;;5039950;28;20200;-66
2022/07/28 10:54:33;;;;;;;1.33;1.20;;;;;;;;;;5049784;28;20259;-65
2022/07/28 10:57:02;;;;;;;1.60;1.38;;;;;;;;;;5049922;28;20597;-65
2022/07/28 10:59:36;;;;;;;2.30;1.10;;;;;;;;;;5050462;28;20208;-65
2022/07/28 11:02:03;;;;;;;1.75;1.02;;;;;;;;;;5050146;28;20204;-65
2022/07/28 11:05:00;;;;;;;1.38;1.13;;;;;;;;;;5050192;28;20210;-65
2022/07/28 11:07:37;;;;;;;1.75;1.10;;;;;;;;;;5015502;28;20302;-63
2022/07/28 11:10:16;;;;;;;1.38;1.30;;;;;;;;;;5049841;28;20216;-66
2022/07/28 11:12:48;;;;;;;1.50;1.40;;;;;;;;;;5050211;28;20210;-65
2022/07/28 11:15:26;;;;;;;2.90;1.15;;;;;;;;;;5050481;28;20318;-65
2022/07/28 11:18:00;;;;;;;1.00;1.00;;;;;;;;;;5049893;28;20269;-66
2022/07/28 11:20:45;;;;;;;3.13;1.17;;;;;;;;;;5049827;28;20246;-62
2022/07/28 11:23:31;;;;;;;1.65;1.13;;;;;;;;;;5049740;28;20234;-65
2022/07/28 11:26:13;;;;;;;1.30;1.17;;;;;;;;;;5049389;28;20219;-64
2022/07/28 11:28:55;;;;;;;2.38;1.20;;;;;;;;;;5049623;28;20207;-71
2022/07/28 11:31:52;;;;;;;1.80;1.10;;;;;;;;;;5049191;28;20598;-64
2022/07/28 11:34:20;;;;;;;2.97;0.93;;;;;;;;;;5049583;28;20289;-64
2022/07/28 11:36:58;;;;;;;1.40;1.30;;;;;;;;;;5049602;28;20589;-65
2022/07/28 11:39:26;;;;;;;3.60;1.33;;;;;;;;;;5049113;28;20231;-66
2022/07/28 11:41:53;;;;;;;1.85;1.20;;;;;;;;;;5049269;28;20744;-66
2022/07/28 11:44:27;;;;;;;1.33;1.10;;;;;;;;;;5049548;28;20200;-62
2022/07/28 11:46:55;;;;;;;2.30;1.40;;;;;;;;;;5049863;28;20254;-61
2022/07/28 11:49:24;;;;;;;2.95;1.10;;;;;;;;;;5049144;28;20196;-64
2022/07/28 11:52:11;;;;;;;1.30;1.30;;;;;;;;;;5049501;28;20204;-64
2022/07/28 11:54:38;;;;;;;3.63;1.05;;;;;;;;;;5048943;28;20243;-64
2022/07/28 11:57:08;;;;;;;1.10;1.10;;;;;;;;;;5048407;28;20203;-64
2022/07/28 11:59:46;;;;;;;1.13;1.10;;;;;;;;;;5048711;28;20780;-64
2022/07/28 12:02:22;;;;;;;0.80;0.80;;;;;;;;;;5047746;28;20585;-65
2022/07/28 12:05:03;;;;;;;1.20;1.20;;;;;;;;;;5048607;28;20200;-65
2022/07/28 12:07:34;;;;;;;1.45;1.02;;;;;;;;;;5049098;28;20211;-64
2022/07/28 12:10:02;;;;;;;2.58;1.40;;;;;;;;;;5048987;28;20210;-65
2022/07/28 12:12:29;;;;;;;1.40;1.20;;;;;;;;;;5049411;28;20203;-65
2022/07/28 12:14:57;;;;;;;1.88;1.25;;;;;;;;;;5048731;28;20227;-66
2022/07/28 12:17:32;;;;;;;1.33;1.10;;;;;;;;;;5048878;28;20204;-65
2022/07/28 12:20:02;;;;;;;5.93;1.70;;;;;;;;;;5048156;28;20325;-65
2022/07/28 12:22:30;;;;;;;3.17;1.30;;;;;;;;;;5048401;28;20588;-65
2022/07/28 12:24:58;;;;;;;1.52;1.20;;;;;;;;;;5048939;28;20269;-65
2022/07/28 12:27:29;;;;;;;0.90;0.90;;;;;;;;;;5049218;28;20237;-66
2022/07/28 12:29:57;;;;;;;1.27;1.20;;;;;;;;;;5048986;28;20205;-66
2022/07/28 12:32:30;;;;;;;1.48;1.17;;;;;;;;;;5029502;28;20432;-65
2022/07/28 12:34:57;;;;;;;2.58;1.02;;;;;;;;;;5029067;28;20256;-66
2022/07/28 12:37:24;;;;;;;2.15;1.30;;;;;;;;;;5033259;28;20219;-66
2022/07/28 12:39:52;;;;;;;3.50;1.30;;;;;;;;;;5049008;28;20212;-66
2022/07/28 12:42:19;;;;;;;1.50;1.40;;;;;;;;;;5048484;28;20947;-65
2022/07/28 12:44:47;;;;;;;2.88;1.10;;;;;;;;;;5048421;28;20211;-66
2022/07/28 12:47:16;;;;;;;1.15;1.05;;;;;;;;;;5047816;28;20206;-66
2022/07/28 12:49:45;;;;;;;3.58;1.42;;;;;;;;;;5048366;28;20204;-65
2022/07/28 12:52:16;;;;;;;1.58;1.23;;;;;;;;;;5048958;28;20223;-66
2022/07/28 12:54:43;;;;;;;2.67;1.35;;;;;;;;;;5048677;28;20326;-67
2022/07/28 12:57:10;;;;;;;1.23;0.90;;;;;;;;;;5048932;28;20207;-66
2022/07/28 12:59:38;;;;;;;2.88;1.02;;;;;;;;;;5049069;28;20207;-66
2022/07/28 13:02:07;;;;;;;3.20;1.23;;;;;;;;;;5047013;28;20218;-66
2022/07/28 13:04:38;;;;;;;1.48;1.38;;;;;;;;;;5048119;28;20203;-66
2022/07/28 13:07:09;;;;;;;2.17;1.33;;;;;;;;;;5047946;28;20219;-63
2022/07/28 13:09:36;;;;;;;0.90;0.90;;;;;;;;;;5048809;28;21022;-63
2022/07/28 13:12:03;;;;;;;1.17;1.08;;;;;;;;;;5048587;28;21726;-64
2022/07/28 13:14:40;;;;;;;1.20;1.10;;;;;;;;;;5051295;28;20231;-65
2022/07/28 13:17:07;;;;;;;1.33;1.02;;;;;;;;;;5051889;28;20624;-64
2022/07/28 13:19:34;;;;;;;1.33;1.27;;;;;;;;;;5052487;28;20244;-63
2022/07/28 13:22:01;;;;;;;2.50;1.27;;;;;;;;;;5052147;28;20210;-64
2022/07/28 13:24:30;;;;;;;1.13;1.13;;;;;;;;;;5048469;28;20200;-63
2022/07/28 13:26:57;;;;;;;2.08;1.27;;;;;;;;;;5049728;28;20227;-64
2022/07/28 13:29:24;;;;;;;1.80;1.15;;;;;;;;;;5042539;28;20207;-64
2022/07/28 13:31:53;;;;;;;1.05;1.05;;;;;;;;;;5048317;28;20674;-64
2022/07/28 13:34:20;;;;;;;2.53;1.50;;;;;;;;;;5051028;28;20262;-63
2022/07/28 13:36:47;;;;;;;1.08;0.90;;;;;;;;;;5051971;28;20228;-65
2022/07/28 13:39:14;;;;;;;2.33;1.13;;;;;;;;;;5051849;28;20269;-64
2022/07/28 13:41:42;;;;;;;1.10;1.10;;;;;;;;;;5052172;28;20207;-64
2022/07/28 13:44:10;;;;;;;1.30;1.20;;;;;;;;;;5051928;28;20626;-63
2022/07/28 13:46:38;;;;;;;1.25;1.15;;;;;;;;;;5051747;28;20211;-64
2022/07/28 13:49:05;;;;;;;1.90;1.55;;;;;;;;;;5051790;28;20223;-64
2022/07/28 13:51:32;;;;;;;2.35;1.20;;;;;;;;;;5051758;28;20733;-63
2022/07/28 13:53:59;;;;;;;1.10;1.10;;;;;;;;;;5051462;28;20788;-64
2022/07/28 13:56:26;;;;;;;1.10;1.10;;;;;;;;;;5044260;28;20219;-64
2022/07/28 13:59:12;;;;;;;1.35;1.25;;;;;;;;;;5051250;28;20204;-66
2022/07/28 14:01:40;;;;;;;2.47;1.00;;;;;;;;;;5039553;28;20207;-64
2022/07/28 14:04:08;;;;;;;1.30;1.20;;;;;;;;;;5051061;28;20207;-64
2022/07/28 14:06:35;;;;;;;6.15;1.27;;;;;;;;;;5050396;28;20208;-64
2022/07/28 14:09:02;;;;;;;2.67;1.30;;;;;;;;;;5049497;28;20203;-64
2022/07/28 14:11:29;;;;;;;1.50;1.40;;;;;;;;;;5048300;28;20252;-65
2022/07/28 14:13:56;;;;;;;1.30;1.20;;;;;;;;;;5045849;28;20564;-65
2022/07/28 14:16:24;;;;;;;1.58;1.48;;;;;;;;;;5050233;28;20626;-64
2022/07/28 14:18:52;;;;;;;1.05;1.05;;;;;;;;;;5048841;28;20239;-64
2022/07/28 14:21:19;;;;;;;1.52;1.42;;;;;;;;;;5049769;28;20211;-64
2022/07/28 14:23:46;;;;;;;2.28;1.17;;;;;;;;;;5048568;28;20199;-64
2022/07/28 14:26:13;;;;;;;1.20;1.20;;;;;;;;;;5047942;28;20925;-65
2022/07/28 14:28:41;;;;;;;1.45;1.20;;;;;;;;;;5048891;28;20204;-66
2022/07/28 14:31:08;;;;;;;1.40;1.40;;;;;;;;;;5049032;28;20204;-65
2022/07/28 14:33:35;;;;;;;1.50;1.40;;;;;;;;;;5048483;28;20286;-65
2022/07/28 14:36:03;;;;;;;2.55;1.23;;;;;;;;;;5047730;28;20241;-65
2022/07/28 14:38:30;;;;;;;2.28;1.40;;;;;;;;;;5049636;28;20222;-65
2022/07/28 14:40:57;;;;;;;1.40;1.40;;;;;;;;;;5050982;28;20204;-65
2022/07/28 14:43:24;;;;;;;2.40;1.20;;;;;;;;;;5050634;28;20670;-65
2022/07/28 14:45:52;;;;;;;1.58;1.30;;;;;;;;;;5048685;28;20196;-65
2022/07/28 14:48:19;;;;;;;1.20;1.20;;;;;;;;;;5046487;28;20204;-65
2022/07/28 14:50:46;;;;;;;1.35;1.27;;;;;;;;;;5047672;28;20199;-64
2022/07/28 14:53:16;;;;;;;1.48;1.33;;;;;;;;;;5046066;28;20800;-64
2022/07/28 14:55:43;;;;;;;1.25;1.25;;;;;;;;;;5047702;28;20291;-64